sensor_id;sensor_type;location;lat;lon;timestamp;P1;durP1;ratioP1;P2;durP2;ratioP2
50968;SDS011;36982;51.474;7.228;2023-04-16T00:00:42;18.90;;;10.37;;
50968;SDS011;36982;51.474;7.228;2023-04-16T00:03:08;18.07;;;10.33;;
50968;SDS011;36982;51.474;7.228;2023-04-16T00:05:33;16.87;;;10.83;;
50968;SDS011;36982;51.474;7.228;2023-04-16T00:07:59;21.70;;;10.60;;
50968;SDS011;36982;51.474;7.228;2023-04-16T00:10:25;21.03;;;10.67;;
50968;SDS011;36982;51.474;7.228;2023-04-16T00:12:50;19.47;;;10.67;;
50968;SDS011;36982;51.474;7.228;2023-04-16T00:15:16;17.90;;;10.43;;
50968;SDS011;36982;51.474;7.228;2023-04-16T00:17:42;17.73;;;10.17;;
50968;SDS011;36982;51.474;7.228;2023-04-16T00:20:07;18.97;;;11.00;;
50968;SDS011;36982;51.474;7.228;2023-04-16T00:22:33;19.53;;;10.87;;
50968;SDS011;36982;51.474;7.228;2023-04-16T00:24:59;19.10;;;10.97;;
50968;SDS011;36982;51.474;7.228;2023-04-16T00:27:25;19.67;;;11.27;;
50968;SDS011;36982;51.474;7.228;2023-04-16T00:29:50;19.57;;;9.73;;
50968;SDS011;36982;51.474;7.228;2023-04-16T00:32:16;20.00;;;10.77;;
50968;SDS011;36982;51.474;7.228;2023-04-16T00:34:42;16.97;;;9.73;;
50968;SDS011;36982;51.474;7.228;2023-04-16T00:37:08;16.70;;;10.47;;
50968;SDS011;36982;51.474;7.228;2023-04-16T00:39:34;16.77;;;10.57;;
50968;SDS011;36982;51.474;7.228;2023-04-16T00:41:59;21.80;;;11.43;;
50968;SDS011;36982;51.474;7.228;2023-04-16T00:44:25;21.43;;;11.10;;
50968;SDS011;36982;51.474;7.228;2023-04-16T00:46:51;19.27;;;10.73;;
50968;SDS011;36982;51.474;7.228;2023-04-16T00:49:17;18.10;;;10.97;;
50968;SDS011;36982;51.474;7.228;2023-04-16T00:51:43;19.37;;;10.53;;
50968;SDS011;36982;51.474;7.228;2023-04-16T00:54:09;24.27;;;11.67;;
50968;SDS011;36982;51.474;7.228;2023-04-16T00:56:34;17.83;;;10.10;;
50968;SDS011;36982;51.474;7.228;2023-04-16T00:59:01;20.00;;;10.63;;
50968;SDS011;36982;51.474;7.228;2023-04-16T01:01:26;17.57;;;11.60;;
50968;SDS011;36982;51.474;7.228;2023-04-16T01:03:52;19.97;;;11.40;;
50968;SDS011;36982;51.474;7.228;2023-04-16T01:06:19;19.60;;;11.30;;
50968;SDS011;36982;51.474;7.228;2023-04-16T01:08:45;19.40;;;11.73;;
50968;SDS011;36982;51.474;7.228;2023-04-16T01:11:11;20.73;;;11.37;;
50968;SDS011;36982;51.474;7.228;2023-04-16T01:13:38;21.13;;;11.33;;
50968;SDS011;36982;51.474;7.228;2023-04-16T01:16:07;18.73;;;11.30;;
50968;SDS011;36982;51.474;7.228;2023-04-16T01:18:33;16.97;;;11.17;;
50968;SDS011;36982;51.474;7.228;2023-04-16T01:21:00;20.57;;;11.90;;
50968;SDS011;36982;51.474;7.228;2023-04-16T01:23:26;21.90;;;12.10;;
50968;SDS011;36982;51.474;7.228;2023-04-16T01:25:51;20.90;;;11.73;;
50968;SDS011;36982;51.474;7.228;2023-04-16T01:28:17;19.73;;;11.60;;
50968;SDS011;36982;51.474;7.228;2023-04-16T01:30:42;21.53;;;11.87;;
50968;SDS011;36982;51.474;7.228;2023-04-16T01:33:11;19.57;;;11.43;;
50968;SDS011;36982;51.474;7.228;2023-04-16T01:35:38;20.33;;;11.43;;
50968;SDS011;36982;51.474;7.228;2023-04-16T01:38:05;22.13;;;12.10;;
50968;SDS011;36982;51.474;7.228;2023-04-16T01:40:32;22.23;;;11.83;;
50968;SDS011;36982;51.474;7.228;2023-04-16T01:43:02;22.07;;;11.57;;
50968;SDS011;36982;51.474;7.228;2023-04-16T01:45:27;22.97;;;12.60;;
50968;SDS011;36982;51.474;7.228;2023-04-16T01:47:54;19.57;;;12.83;;
50968;SDS011;36982;51.474;7.228;2023-04-16T01:50:20;18.73;;;12.37;;
50968;SDS011;36982;51.474;7.228;2023-04-16T01:52:46;25.10;;;11.90;;
50968;SDS011;36982;51.474;7.228;2023-04-16T01:55:12;22.00;;;12.67;;
50968;SDS011;36982;51.474;7.228;2023-04-16T01:57:38;20.43;;;11.23;;
50968;SDS011;36982;51.474;7.228;2023-04-16T02:00:03;22.00;;;12.60;;
50968;SDS011;36982;51.474;7.228;2023-04-16T02:02:29;25.10;;;13.40;;
50968;SDS011;36982;51.474;7.228;2023-04-16T02:04:56;22.87;;;13.37;;
50968;SDS011;36982;51.474;7.228;2023-04-16T02:07:21;21.23;;;12.40;;
50968;SDS011;36982;51.474;7.228;2023-04-16T02:09:48;21.63;;;13.30;;
50968;SDS011;36982;51.474;7.228;2023-04-16T02:12:16;22.77;;;12.73;;
50968;SDS011;36982;51.474;7.228;2023-04-16T02:14:42;23.87;;;13.73;;
50968;SDS011;36982;51.474;7.228;2023-04-16T02:17:08;26.97;;;14.00;;
50968;SDS011;36982;51.474;7.228;2023-04-16T02:19:34;25.90;;;14.30;;
50968;SDS011;36982;51.474;7.228;2023-04-16T02:22:00;25.33;;;15.03;;
50968;SDS011;36982;51.474;7.228;2023-04-16T02:24:25;27.80;;;14.60;;
50968;SDS011;36982;51.474;7.228;2023-04-16T02:26:51;22.03;;;13.97;;
50968;SDS011;36982;51.474;7.228;2023-04-16T02:29:17;24.40;;;14.77;;
50968;SDS011;36982;51.474;7.228;2023-04-16T02:31:43;30.13;;;15.20;;
50968;SDS011;36982;51.474;7.228;2023-04-16T02:34:09;25.83;;;15.13;;
50968;SDS011;36982;51.474;7.228;2023-04-16T02:36:35;28.77;;;15.40;;
50968;SDS011;36982;51.474;7.228;2023-04-16T02:39:00;30.03;;;16.10;;
50968;SDS011;36982;51.474;7.228;2023-04-16T02:41:26;27.00;;;15.57;;
50968;SDS011;36982;51.474;7.228;2023-04-16T02:43:52;26.47;;;16.70;;
50968;SDS011;36982;51.474;7.228;2023-04-16T02:46:17;27.40;;;17.00;;
50968;SDS011;36982;51.474;7.228;2023-04-16T02:48:43;27.43;;;15.50;;
50968;SDS011;36982;51.474;7.228;2023-04-16T02:51:08;25.63;;;16.10;;
50968;SDS011;36982;51.474;7.228;2023-04-16T02:53:34;26.80;;;16.30;;
50968;SDS011;36982;51.474;7.228;2023-04-16T02:55:59;26.50;;;15.73;;
50968;SDS011;36982;51.474;7.228;2023-04-16T02:58:25;26.23;;;17.07;;
50968;SDS011;36982;51.474;7.228;2023-04-16T03:00:51;27.40;;;16.63;;
50968;SDS011;36982;51.474;7.228;2023-04-16T03:03:18;25.03;;;17.13;;
50968;SDS011;36982;51.474;7.228;2023-04-16T03:05:44;28.23;;;17.07;;
50968;SDS011;36982;51.474;7.228;2023-04-16T03:08:09;28.53;;;17.40;;
50968;SDS011;36982;51.474;7.228;2023-04-16T03:10:35;30.33;;;16.87;;
50968;SDS011;36982;51.474;7.228;2023-04-16T03:13:01;26.90;;;16.60;;
50968;SDS011;36982;51.474;7.228;2023-04-16T03:15:27;27.97;;;17.27;;
50968;SDS011;36982;51.474;7.228;2023-04-16T03:17:53;28.17;;;16.93;;
50968;SDS011;36982;51.474;7.228;2023-04-16T03:20:19;26.70;;;16.27;;
50968;SDS011;36982;51.474;7.228;2023-04-16T03:22:45;25.20;;;16.33;;
50968;SDS011;36982;51.474;7.228;2023-04-16T03:25:11;27.57;;;16.23;;
50968;SDS011;36982;51.474;7.228;2023-04-16T03:27:37;28.90;;;16.43;;
50968;SDS011;36982;51.474;7.228;2023-04-16T03:30:04;25.07;;;16.97;;
50968;SDS011;36982;51.474;7.228;2023-04-16T03:32:31;24.57;;;15.97;;
50968;SDS011;36982;51.474;7.228;2023-04-16T03:34:57;29.07;;;16.07;;
50968;SDS011;36982;51.474;7.228;2023-04-16T03:37:22;26.53;;;16.17;;
50968;SDS011;36982;51.474;7.228;2023-04-16T03:39:48;25.00;;;15.63;;
50968;SDS011;36982;51.474;7.228;2023-04-16T03:42:14;23.90;;;15.03;;
50968;SDS011;36982;51.474;7.228;2023-04-16T03:44:39;23.40;;;15.93;;
50968;SDS011;36982;51.474;7.228;2023-04-16T03:47:05;23.13;;;15.13;;
50968;SDS011;36982;51.474;7.228;2023-04-16T03:49:30;24.10;;;15.67;;
50968;SDS011;36982;51.474;7.228;2023-04-16T03:51:56;26.07;;;15.10;;
50968;SDS011;36982;51.474;7.228;2023-04-16T03:54:21;24.17;;;15.80;;
50968;SDS011;36982;51.474;7.228;2023-04-16T03:56:47;23.77;;;14.97;;
50968;SDS011;36982;51.474;7.228;2023-04-16T03:59:13;26.03;;;16.33;;
50968;SDS011;36982;51.474;7.228;2023-04-16T04:01:38;28.00;;;17.27;;
50968;SDS011;36982;51.474;7.228;2023-04-16T04:04:04;27.63;;;16.20;;
50968;SDS011;36982;51.474;7.228;2023-04-16T04:06:30;26.27;;;17.23;;
50968;SDS011;36982;51.474;7.228;2023-04-16T04:08:56;28.47;;;17.13;;
50968;SDS011;36982;51.474;7.228;2023-04-16T04:11:22;29.70;;;17.07;;
50968;SDS011;36982;51.474;7.228;2023-04-16T04:13:48;29.67;;;17.10;;
50968;SDS011;36982;51.474;7.228;2023-04-16T04:16:13;30.53;;;17.80;;
50968;SDS011;36982;51.474;7.228;2023-04-16T04:18:39;34.07;;;18.03;;
50968;SDS011;36982;51.474;7.228;2023-04-16T04:21:05;30.03;;;17.40;;
50968;SDS011;36982;51.474;7.228;2023-04-16T04:23:31;29.13;;;18.07;;
50968;SDS011;36982;51.474;7.228;2023-04-16T04:25:57;30.27;;;17.87;;
50968;SDS011;36982;51.474;7.228;2023-04-16T04:28:23;37.17;;;18.83;;
50968;SDS011;36982;51.474;7.228;2023-04-16T04:30:48;30.00;;;18.27;;
50968;SDS011;36982;51.474;7.228;2023-04-16T04:33:14;36.10;;;18.40;;
50968;SDS011;36982;51.474;7.228;2023-04-16T04:35:40;33.00;;;18.43;;
50968;SDS011;36982;51.474;7.228;2023-04-16T04:38:05;34.43;;;18.37;;
50968;SDS011;36982;51.474;7.228;2023-04-16T04:40:31;32.57;;;18.77;;
50968;SDS011;36982;51.474;7.228;2023-04-16T04:42:57;34.80;;;19.10;;
50968;SDS011;36982;51.474;7.228;2023-04-16T04:45:22;36.03;;;19.40;;
50968;SDS011;36982;51.474;7.228;2023-04-16T04:47:51;35.37;;;18.83;;
50968;SDS011;36982;51.474;7.228;2023-04-16T04:50:17;32.03;;;19.77;;
50968;SDS011;36982;51.474;7.228;2023-04-16T04:52:42;33.40;;;18.67;;
50968;SDS011;36982;51.474;7.228;2023-04-16T04:55:08;28.53;;;18.10;;
50968;SDS011;36982;51.474;7.228;2023-04-16T04:57:34;33.03;;;18.33;;
50968;SDS011;36982;51.474;7.228;2023-04-16T04:59:59;30.17;;;17.77;;
50968;SDS011;36982;51.474;7.228;2023-04-16T05:02:27;29.97;;;17.53;;
50968;SDS011;36982;51.474;7.228;2023-04-16T05:04:53;30.60;;;18.23;;
50968;SDS011;36982;51.474;7.228;2023-04-16T05:07:19;32.90;;;18.33;;
50968;SDS011;36982;51.474;7.228;2023-04-16T05:09:46;32.43;;;18.80;;
50968;SDS011;36982;51.474;7.228;2023-04-16T05:12:11;26.93;;;17.53;;
50968;SDS011;36982;51.474;7.228;2023-04-16T05:14:37;30.47;;;17.63;;
50968;SDS011;36982;51.474;7.228;2023-04-16T05:17:02;35.10;;;18.87;;
50968;SDS011;36982;51.474;7.228;2023-04-16T05:19:28;30.07;;;17.33;;
50968;SDS011;36982;51.474;7.228;2023-04-16T05:21:54;28.03;;;17.60;;
50968;SDS011;36982;51.474;7.228;2023-04-16T05:24:19;30.30;;;18.17;;
50968;SDS011;36982;51.474;7.228;2023-04-16T05:26:46;28.40;;;17.17;;
50968;SDS011;36982;51.474;7.228;2023-04-16T05:29:12;26.80;;;16.83;;
50968;SDS011;36982;51.474;7.228;2023-04-16T05:31:37;28.77;;;17.63;;
50968;SDS011;36982;51.474;7.228;2023-04-16T05:34:03;31.80;;;18.17;;
50968;SDS011;36982;51.474;7.228;2023-04-16T05:36:29;30.00;;;17.87;;
50968;SDS011;36982;51.474;7.228;2023-04-16T05:38:54;30.83;;;17.30;;
50968;SDS011;36982;51.474;7.228;2023-04-16T05:41:20;30.87;;;17.83;;
50968;SDS011;36982;51.474;7.228;2023-04-16T05:43:45;32.33;;;18.43;;
50968;SDS011;36982;51.474;7.228;2023-04-16T05:46:11;32.43;;;19.03;;
50968;SDS011;36982;51.474;7.228;2023-04-16T05:48:36;31.67;;;17.77;;
50968;SDS011;36982;51.474;7.228;2023-04-16T05:51:02;32.37;;;17.87;;
50968;SDS011;36982;51.474;7.228;2023-04-16T05:53:28;30.80;;;17.63;;
50968;SDS011;36982;51.474;7.228;2023-04-16T05:55:53;32.60;;;17.90;;
50968;SDS011;36982;51.474;7.228;2023-04-16T05:58:19;29.57;;;18.87;;
50968;SDS011;36982;51.474;7.228;2023-04-16T06:00:44;30.57;;;17.87;;
50968;SDS011;36982;51.474;7.228;2023-04-16T06:03:10;32.10;;;18.53;;
50968;SDS011;36982;51.474;7.228;2023-04-16T06:05:36;32.73;;;18.10;;
50968;SDS011;36982;51.474;7.228;2023-04-16T06:08:01;32.23;;;17.80;;
50968;SDS011;36982;51.474;7.228;2023-04-16T06:10:27;35.17;;;17.57;;
50968;SDS011;36982;51.474;7.228;2023-04-16T06:12:53;34.27;;;18.50;;
50968;SDS011;36982;51.474;7.228;2023-04-16T06:15:18;28.70;;;17.60;;
50968;SDS011;36982;51.474;7.228;2023-04-16T06:17:44;32.97;;;19.33;;
50968;SDS011;36982;51.474;7.228;2023-04-16T06:20:10;30.30;;;17.50;;
50968;SDS011;36982;51.474;7.228;2023-04-16T06:22:36;34.27;;;18.17;;
50968;SDS011;36982;51.474;7.228;2023-04-16T06:25:02;30.47;;;18.37;;
50968;SDS011;36982;51.474;7.228;2023-04-16T06:27:28;29.50;;;18.50;;
50968;SDS011;36982;51.474;7.228;2023-04-16T06:29:55;33.40;;;19.90;;
50968;SDS011;36982;51.474;7.228;2023-04-16T06:32:21;31.30;;;18.27;;
50968;SDS011;36982;51.474;7.228;2023-04-16T06:34:46;27.57;;;17.43;;
50968;SDS011;36982;51.474;7.228;2023-04-16T06:37:12;31.93;;;18.13;;
50968;SDS011;36982;51.474;7.228;2023-04-16T06:39:37;28.07;;;17.60;;
50968;SDS011;36982;51.474;7.228;2023-04-16T06:42:03;26.67;;;17.90;;
50968;SDS011;36982;51.474;7.228;2023-04-16T06:44:29;28.90;;;18.50;;
50968;SDS011;36982;51.474;7.228;2023-04-16T06:46:54;28.30;;;18.70;;
50968;SDS011;36982;51.474;7.228;2023-04-16T06:49:20;29.33;;;18.93;;
50968;SDS011;36982;51.474;7.228;2023-04-16T06:51:45;29.53;;;18.50;;
50968;SDS011;36982;51.474;7.228;2023-04-16T06:54:11;30.40;;;18.53;;
50968;SDS011;36982;51.474;7.228;2023-04-16T06:56:37;29.87;;;18.73;;
50968;SDS011;36982;51.474;7.228;2023-04-16T06:59:02;29.40;;;17.87;;
50968;SDS011;36982;51.474;7.228;2023-04-16T07:01:28;29.67;;;18.43;;
50968;SDS011;36982;51.474;7.228;2023-04-16T07:03:55;29.53;;;19.20;;
50968;SDS011;36982;51.474;7.228;2023-04-16T07:06:21;31.57;;;18.93;;
50968;SDS011;36982;51.474;7.228;2023-04-16T07:08:47;30.13;;;17.80;;
50968;SDS011;36982;51.474;7.228;2023-04-16T07:11:12;31.30;;;18.00;;
50968;SDS011;36982;51.474;7.228;2023-04-16T07:13:38;29.70;;;19.30;;
50968;SDS011;36982;51.474;7.228;2023-04-16T07:16:04;31.20;;;18.33;;
50968;SDS011;36982;51.474;7.228;2023-04-16T07:18:30;27.27;;;18.60;;
50968;SDS011;36982;51.474;7.228;2023-04-16T07:20:56;32.03;;;20.23;;
50968;SDS011;36982;51.474;7.228;2023-04-16T07:23:21;32.57;;;19.93;;
50968;SDS011;36982;51.474;7.228;2023-04-16T07:25:47;29.53;;;18.13;;
50968;SDS011;36982;51.474;7.228;2023-04-16T07:28:13;30.07;;;19.13;;
50968;SDS011;36982;51.474;7.228;2023-04-16T07:30:41;32.93;;;19.83;;
50968;SDS011;36982;51.474;7.228;2023-04-16T07:33:07;27.83;;;18.50;;
50968;SDS011;36982;51.474;7.228;2023-04-16T07:35:32;31.63;;;19.80;;
50968;SDS011;36982;51.474;7.228;2023-04-16T07:37:58;32.30;;;19.80;;
50968;SDS011;36982;51.474;7.228;2023-04-16T07:40:24;26.40;;;18.57;;
50968;SDS011;36982;51.474;7.228;2023-04-16T07:42:50;32.30;;;18.23;;
50968;SDS011;36982;51.474;7.228;2023-04-16T07:45:16;29.33;;;18.70;;
50968;SDS011;36982;51.474;7.228;2023-04-16T07:47:42;29.10;;;18.07;;
50968;SDS011;36982;51.474;7.228;2023-04-16T07:50:08;27.57;;;18.27;;
50968;SDS011;36982;51.474;7.228;2023-04-16T07:52:34;30.23;;;18.10;;
50968;SDS011;36982;51.474;7.228;2023-04-16T07:54:59;26.30;;;17.60;;
50968;SDS011;36982;51.474;7.228;2023-04-16T07:57:25;28.00;;;18.33;;
50968;SDS011;36982;51.474;7.228;2023-04-16T07:59:50;28.17;;;17.87;;
50968;SDS011;36982;51.474;7.228;2023-04-16T08:02:16;25.43;;;17.30;;
50968;SDS011;36982;51.474;7.228;2023-04-16T08:04:42;27.50;;;18.63;;
50968;SDS011;36982;51.474;7.228;2023-04-16T08:07:07;24.93;;;16.80;;
50968;SDS011;36982;51.474;7.228;2023-04-16T08:09:34;27.03;;;17.57;;
50968;SDS011;36982;51.474;7.228;2023-04-16T08:12:00;25.27;;;17.37;;
50968;SDS011;36982;51.474;7.228;2023-04-16T08:14:26;22.27;;;16.47;;
50968;SDS011;36982;51.474;7.228;2023-04-16T08:16:52;22.97;;;16.27;;
50968;SDS011;36982;51.474;7.228;2023-04-16T08:19:18;21.87;;;16.30;;
50968;SDS011;36982;51.474;7.228;2023-04-16T08:21:43;23.47;;;16.43;;
50968;SDS011;36982;51.474;7.228;2023-04-16T08:24:09;24.27;;;16.13;;
50968;SDS011;36982;51.474;7.228;2023-04-16T08:26:35;24.43;;;16.03;;
50968;SDS011;36982;51.474;7.228;2023-04-16T08:29:01;23.67;;;17.13;;
50968;SDS011;36982;51.474;7.228;2023-04-16T08:31:27;20.93;;;15.53;;
50968;SDS011;36982;51.474;7.228;2023-04-16T08:33:52;22.40;;;15.97;;
50968;SDS011;36982;51.474;7.228;2023-04-16T08:36:18;22.20;;;15.53;;
50968;SDS011;36982;51.474;7.228;2023-04-16T08:38:44;22.37;;;15.60;;
50968;SDS011;36982;51.474;7.228;2023-04-16T08:41:10;23.13;;;16.00;;
50968;SDS011;36982;51.474;7.228;2023-04-16T08:43:37;22.00;;;16.07;;
50968;SDS011;36982;51.474;7.228;2023-04-16T08:46:08;21.33;;;15.53;;
50968;SDS011;36982;51.474;7.228;2023-04-16T08:48:35;23.10;;;16.47;;
50968;SDS011;36982;51.474;7.228;2023-04-16T08:51:01;23.03;;;16.37;;
50968;SDS011;36982;51.474;7.228;2023-04-16T08:53:28;22.43;;;16.07;;
50968;SDS011;36982;51.474;7.228;2023-04-16T08:56:02;22.03;;;15.73;;
50968;SDS011;36982;51.474;7.228;2023-04-16T08:58:29;21.43;;;16.03;;
50968;SDS011;36982;51.474;7.228;2023-04-16T09:00:58;19.67;;;15.17;;
50968;SDS011;36982;51.474;7.228;2023-04-16T09:03:27;21.73;;;16.17;;
50968;SDS011;36982;51.474;7.228;2023-04-16T09:05:53;22.93;;;15.63;;
50968;SDS011;36982;51.474;7.228;2023-04-16T09:08:21;22.63;;;15.30;;
50968;SDS011;36982;51.474;7.228;2023-04-16T09:10:47;22.73;;;15.13;;
50968;SDS011;36982;51.474;7.228;2023-04-16T09:13:13;24.23;;;16.07;;
50968;SDS011;36982;51.474;7.228;2023-04-16T09:15:40;21.53;;;15.27;;
50968;SDS011;36982;51.474;7.228;2023-04-16T09:18:07;23.00;;;15.90;;
50968;SDS011;36982;51.474;7.228;2023-04-16T09:20:36;22.40;;;16.03;;
50968;SDS011;36982;51.474;7.228;2023-04-16T09:23:02;23.77;;;16.20;;
50968;SDS011;36982;51.474;7.228;2023-04-16T09:25:31;23.73;;;16.13;;
50968;SDS011;36982;51.474;7.228;2023-04-16T09:28:01;20.83;;;15.43;;
50968;SDS011;36982;51.474;7.228;2023-04-16T09:30:27;19.00;;;15.07;;
50968;SDS011;36982;51.474;7.228;2023-04-16T09:33:10;23.20;;;15.10;;
50968;SDS011;36982;51.474;7.228;2023-04-16T09:35:52;22.47;;;15.87;;
50968;SDS011;36982;51.474;7.228;2023-04-16T09:38:18;19.43;;;14.13;;
50968;SDS011;36982;51.474;7.228;2023-04-16T09:40:44;22.43;;;16.10;;
50968;SDS011;36982;51.474;7.228;2023-04-16T09:43:17;24.83;;;18.60;;
50968;SDS011;36982;51.474;7.228;2023-04-16T09:48:14;20.17;;;15.10;;
50968;SDS011;36982;51.474;7.228;2023-04-16T09:50:45;23.57;;;15.30;;
50968;SDS011;36982;51.474;7.228;2023-04-16T09:53:22;21.80;;;15.57;;
50968;SDS011;36982;51.474;7.228;2023-04-16T09:55:49;20.60;;;14.93;;
50968;SDS011;36982;51.474;7.228;2023-04-16T09:58:17;20.27;;;14.37;;
50968;SDS011;36982;51.474;7.228;2023-04-16T10:00:43;19.80;;;16.10;;
50968;SDS011;36982;51.474;7.228;2023-04-16T10:03:09;22.17;;;15.67;;
50968;SDS011;36982;51.474;7.228;2023-04-16T10:05:35;19.57;;;15.57;;
50968;SDS011;36982;51.474;7.228;2023-04-16T10:08:01;18.10;;;14.27;;
50968;SDS011;36982;51.474;7.228;2023-04-16T10:10:27;21.93;;;15.57;;
50968;SDS011;36982;51.474;7.228;2023-04-16T10:12:54;21.00;;;15.77;;
50968;SDS011;36982;51.474;7.228;2023-04-16T10:15:20;18.77;;;14.93;;
50968;SDS011;36982;51.474;7.228;2023-04-16T10:17:46;19.57;;;15.23;;
50968;SDS011;36982;51.474;7.228;2023-04-16T10:20:12;22.10;;;15.97;;
50968;SDS011;36982;51.474;7.228;2023-04-16T10:22:39;21.23;;;15.83;;
50968;SDS011;36982;51.474;7.228;2023-04-16T10:25:06;21.63;;;15.70;;
50968;SDS011;36982;51.474;7.228;2023-04-16T10:27:33;21.03;;;15.57;;
50968;SDS011;36982;51.474;7.228;2023-04-16T10:29:59;24.77;;;16.37;;
50968;SDS011;36982;51.474;7.228;2023-04-16T10:32:25;19.67;;;13.93;;
50968;SDS011;36982;51.474;7.228;2023-04-16T10:34:53;20.73;;;15.00;;
50968;SDS011;36982;51.474;7.228;2023-04-16T10:37:27;18.73;;;14.60;;
50968;SDS011;36982;51.474;7.228;2023-04-16T10:39:57;21.40;;;15.67;;
50968;SDS011;36982;51.474;7.228;2023-04-16T10:42:23;18.03;;;14.83;;
50968;SDS011;36982;51.474;7.228;2023-04-16T10:44:50;19.53;;;13.27;;
50968;SDS011;36982;51.474;7.228;2023-04-16T10:47:15;20.00;;;14.93;;
50968;SDS011;36982;51.474;7.228;2023-04-16T10:49:41;21.30;;;15.20;;
50968;SDS011;36982;51.474;7.228;2023-04-16T10:52:14;20.23;;;14.27;;
50968;SDS011;36982;51.474;7.228;2023-04-16T10:54:43;18.30;;;14.60;;
50968;SDS011;36982;51.474;7.228;2023-04-16T10:57:19;19.27;;;14.40;;
50968;SDS011;36982;51.474;7.228;2023-04-16T10:59:45;20.80;;;14.10;;
50968;SDS011;36982;51.474;7.228;2023-04-16T11:02:13;19.07;;;14.17;;
50968;SDS011;36982;51.474;7.228;2023-04-16T11:04:42;18.90;;;13.60;;
50968;SDS011;36982;51.474;7.228;2023-04-16T11:09:50;18.93;;;14.10;;
50968;SDS011;36982;51.474;7.228;2023-04-16T11:15:06;17.03;;;13.53;;
50968;SDS011;36982;51.474;7.228;2023-04-16T11:18:10;18.57;;;13.07;;
50968;SDS011;36982;51.474;7.228;2023-04-16T11:20:30;17.63;;;13.37;;
50968;SDS011;36982;51.474;7.228;2023-04-16T11:22:56;18.07;;;13.47;;
50968;SDS011;36982;51.474;7.228;2023-04-16T11:25:23;16.77;;;13.47;;
50968;SDS011;36982;51.474;7.228;2023-04-16T11:27:50;17.40;;;12.77;;
50968;SDS011;36982;51.474;7.228;2023-04-16T11:30:16;16.37;;;11.33;;
50968;SDS011;36982;51.474;7.228;2023-04-16T11:32:43;15.47;;;11.80;;
50968;SDS011;36982;51.474;7.228;2023-04-16T11:35:13;15.77;;;12.97;;
50968;SDS011;36982;51.474;7.228;2023-04-16T11:37:40;15.67;;;12.33;;
50968;SDS011;36982;51.474;7.228;2023-04-16T11:40:06;19.17;;;13.17;;
50968;SDS011;36982;51.474;7.228;2023-04-16T11:42:36;16.63;;;12.77;;
50968;SDS011;36982;51.474;7.228;2023-04-16T11:45:07;18.60;;;13.07;;
50968;SDS011;36982;51.474;7.228;2023-04-16T11:47:45;16.83;;;12.77;;
50968;SDS011;36982;51.474;7.228;2023-04-16T11:50:19;16.00;;;12.27;;
50968;SDS011;36982;51.474;7.228;2023-04-16T11:52:54;18.50;;;11.97;;
50968;SDS011;36982;51.474;7.228;2023-04-16T11:55:21;15.63;;;12.70;;
50968;SDS011;36982;51.474;7.228;2023-04-16T11:57:47;16.23;;;13.10;;
50968;SDS011;36982;51.474;7.228;2023-04-16T12:00:13;15.10;;;12.00;;
50968;SDS011;36982;51.474;7.228;2023-04-16T12:02:43;17.87;;;12.00;;
50968;SDS011;36982;51.474;7.228;2023-04-16T12:07:59;17.67;;;12.43;;
50968;SDS011;36982;51.474;7.228;2023-04-16T12:10:37;16.83;;;11.83;;
50968;SDS011;36982;51.474;7.228;2023-04-16T12:13:17;17.13;;;13.23;;
50968;SDS011;36982;51.474;7.228;2023-04-16T12:18:09;20.17;;;13.50;;
50968;SDS011;36982;51.474;7.228;2023-04-16T12:20:38;16.47;;;12.80;;
50968;SDS011;36982;51.474;7.228;2023-04-16T12:23:05;17.43;;;14.10;;
50968;SDS011;36982;51.474;7.228;2023-04-16T12:25:32;17.57;;;13.37;;
50968;SDS011;36982;51.474;7.228;2023-04-16T12:27:58;17.37;;;13.97;;
50968;SDS011;36982;51.474;7.228;2023-04-16T12:30:24;20.23;;;14.53;;
50968;SDS011;36982;51.474;7.228;2023-04-16T12:32:51;18.70;;;13.43;;
50968;SDS011;36982;51.474;7.228;2023-04-16T12:35:36;18.27;;;13.97;;
50968;SDS011;36982;51.474;7.228;2023-04-16T12:38:03;17.73;;;13.87;;
50968;SDS011;36982;51.474;7.228;2023-04-16T12:40:28;17.00;;;13.63;;
50968;SDS011;36982;51.474;7.228;2023-04-16T12:42:54;16.00;;;12.97;;
50968;SDS011;36982;51.474;7.228;2023-04-16T12:45:19;19.63;;;13.67;;
50968;SDS011;36982;51.474;7.228;2023-04-16T12:47:46;19.23;;;14.27;;
50968;SDS011;36982;51.474;7.228;2023-04-16T12:50:11;17.23;;;13.03;;
50968;SDS011;36982;51.474;7.228;2023-04-16T12:52:37;16.50;;;13.70;;
50968;SDS011;36982;51.474;7.228;2023-04-16T12:55:03;20.47;;;13.27;;
50968;SDS011;36982;51.474;7.228;2023-04-16T12:57:29;19.13;;;13.27;;
50968;SDS011;36982;51.474;7.228;2023-04-16T12:59:55;15.70;;;13.00;;
50968;SDS011;36982;51.474;7.228;2023-04-16T13:02:21;17.17;;;14.23;;
50968;SDS011;36982;51.474;7.228;2023-04-16T13:04:47;16.93;;;13.33;;
50968;SDS011;36982;51.474;7.228;2023-04-16T13:07:13;15.00;;;13.13;;
50968;SDS011;36982;51.474;7.228;2023-04-16T13:09:39;15.67;;;12.27;;
50968;SDS011;36982;51.474;7.228;2023-04-16T13:12:05;18.63;;;13.97;;
50968;SDS011;36982;51.474;7.228;2023-04-16T13:14:31;14.67;;;12.97;;
50968;SDS011;36982;51.474;7.228;2023-04-16T13:16:56;15.17;;;12.47;;
50968;SDS011;36982;51.474;7.228;2023-04-16T13:19:22;15.23;;;11.77;;
50968;SDS011;36982;51.474;7.228;2023-04-16T13:21:48;16.80;;;12.27;;
50968;SDS011;36982;51.474;7.228;2023-04-16T13:24:13;17.17;;;13.47;;
50968;SDS011;36982;51.474;7.228;2023-04-16T13:26:39;16.40;;;12.90;;
50968;SDS011;36982;51.474;7.228;2023-04-16T13:29:06;15.67;;;12.20;;
50968;SDS011;36982;51.474;7.228;2023-04-16T13:31:31;14.67;;;11.87;;
50968;SDS011;36982;51.474;7.228;2023-04-16T13:33:57;15.40;;;11.93;;
50968;SDS011;36982;51.474;7.228;2023-04-16T13:36:23;16.43;;;10.87;;
50968;SDS011;36982;51.474;7.228;2023-04-16T13:38:48;15.33;;;10.60;;
50968;SDS011;36982;51.474;7.228;2023-04-16T13:41:14;14.97;;;11.23;;
50968;SDS011;36982;51.474;7.228;2023-04-16T13:43:40;14.70;;;11.20;;
50968;SDS011;36982;51.474;7.228;2023-04-16T13:46:05;14.17;;;10.70;;
50968;SDS011;36982;51.474;7.228;2023-04-16T13:48:31;11.50;;;10.03;;
50968;SDS011;36982;51.474;7.228;2023-04-16T13:50:57;12.60;;;9.93;;
50968;SDS011;36982;51.474;7.228;2023-04-16T13:53:22;14.93;;;10.93;;
50968;SDS011;36982;51.474;7.228;2023-04-16T13:55:48;15.43;;;10.40;;
50968;SDS011;36982;51.474;7.228;2023-04-16T13:58:15;13.67;;;11.07;;
50968;SDS011;36982;51.474;7.228;2023-04-16T14:00:41;13.60;;;10.87;;
50968;SDS011;36982;51.474;7.228;2023-04-16T14:03:06;14.67;;;10.80;;
50968;SDS011;36982;51.474;7.228;2023-04-16T14:05:32;13.67;;;10.53;;
50968;SDS011;36982;51.474;7.228;2023-04-16T14:07:58;15.57;;;11.10;;
50968;SDS011;36982;51.474;7.228;2023-04-16T14:10:23;13.37;;;10.17;;
50968;SDS011;36982;51.474;7.228;2023-04-16T14:12:49;13.27;;;9.93;;
50968;SDS011;36982;51.474;7.228;2023-04-16T14:15:15;13.27;;;9.90;;
50968;SDS011;36982;51.474;7.228;2023-04-16T14:17:43;12.17;;;9.93;;
50968;SDS011;36982;51.474;7.228;2023-04-16T14:20:10;15.50;;;10.13;;
50968;SDS011;36982;51.474;7.228;2023-04-16T14:22:36;11.23;;;9.87;;
50968;SDS011;36982;51.474;7.228;2023-04-16T14:25:02;16.37;;;11.30;;
50968;SDS011;36982;51.474;7.228;2023-04-16T14:27:28;14.93;;;9.30;;
50968;SDS011;36982;51.474;7.228;2023-04-16T14:29:54;12.77;;;9.67;;